Main page
METAR-TAF:

METAR-TAF

Airports :

London Southend Airport

London-Southend, England

latitude: 51-34N, longitude: 000-42E, elevation: 15 m

Current weather observation

The report was made 30 minutes ago, at 18:50 UTC
Wind 10 kt from the East
Temperature 15°C
Humidity 63%
Pressure 1022 hPa
Visibility 10 km or more
no clouds below 1500 m and no cumulonimbus

METAR: EGMC 191850Z 09010KT CAVOK 15/08 Q1022

Time: 20:20 (19:20 UTC)

Forecast

The report was made 2 hours and 24 minutes ago, at 16:56 UTC
Forecast valid from 19 at 18 UTC to 19 at 22 UTC
Wind 14 kt from the East
Visibility 10 km or more
Few clouds at a height of 3000 ft

TAF: EGMC 191656Z 1918/1922 08014KT 9999 FEW030

Weather observations and forecasts of more than 4000 airports (METAR and TAF reports).

The available stations are represented by yellow and red dots on the map.

Hover mouse over dot to see the name of the station.

Then click to see weather observations and forecasts.

To change the map : click on the green buttons with a black cross to zoom in, on the green button with a dash to zoom out, or on the green arrows for adjacent maps.


METAR-TAF: